Time;durP1;ratioP1;P1;durP2;ratioP2;P2;SDS_P1;SDS_P2;PMS_P1;PMS_P2;Temp;Humidity;BMP_temperature;BMP_pressure;BME280_temperature;BME280_humidity;BME280_pressure;Samples;Min_cycle;Max_cycle;Signal;HPM_P1;HPM_P2
2021/12/17 00:01:55;;;;;;;47.55;32.65;;;;;;;5.73;100.00;103934.13;5068320;28;20056;-84
2021/12/17 00:04:26;;;;;;;42.90;31.05;;;;;;;5.74;100.00;103928.00;5073376;28;20025;-84
2021/12/17 00:06:51;;;;;;;43.53;31.23;;;;;;;5.73;100.00;103931.50;5074097;28;20073;-86
2021/12/17 00:09:17;;;;;;;46.65;32.03;;;;;;;5.81;100.00;103939.31;5091347;28;20027;-84
2021/12/17 00:11:42;;;;;;;46.45;32.50;;;;;;;5.77;100.00;103929.75;5093159;28;20095;-84
2021/12/17 00:14:08;;;;;;;50.70;33.08;;;;;;;5.83;100.00;103937.53;5106093;28;20032;-83
2021/12/17 00:16:39;;;;;;;43.42;31.40;;;;;;;5.76;100.00;103915.81;5105498;28;20039;-86
2021/12/17 00:48:44;;;;;;;50.00;34.95;;;;;;;5.93;100.00;103898.31;5077067;28;20109;-83
2021/12/17 00:54:08;;;;;;;48.58;34.13;;;;;;;6.03;100.00;103909.63;5092117;28;20120;-83
2021/12/17 00:56:34;;;;;;;53.65;36.22;;;;;;;6.03;100.00;103904.41;5089330;28;20091;-83
2021/12/17 00:59:00;;;;;;;49.95;35.67;;;;;;;6.12;100.00;103908.69;5073163;28;20032;-82
2021/12/17 01:01:25;;;;;;;52.70;35.40;;;;;;;6.08;100.00;103905.22;5090626;28;20032;-82
2021/12/17 01:03:52;;;;;;;63.03;38.75;;;;;;;6.14;100.00;103915.66;5091352;28;20042;-81
2021/12/17 01:06:22;;;;;;;52.33;35.95;;;;;;;6.17;100.00;103913.00;5091708;28;20054;-83
2021/12/17 01:08:48;;;;;;;51.75;34.58;;;;;;;6.14;100.00;103902.56;5092122;28;20052;-83
2021/12/17 01:11:14;;;;;;;49.88;35.97;;;;;;;6.13;100.00;103899.97;5091151;28;20035;-83
2021/12/17 01:13:41;;;;;;;49.15;34.22;;;;;;;6.20;100.00;103910.38;5100521;28;20019;-83
2021/12/17 01:16:08;;;;;;;53.45;36.08;;;;;;;6.20;100.00;103905.16;5093096;28;20044;-84
2021/12/17 01:18:45;;;;;;;48.75;34.50;;;;;;;6.22;100.00;103905.13;5091004;28;20110;-81
2021/12/17 01:21:44;;;;;;;47.47;33.75;;;;;;;6.20;100.00;103896.44;5091329;28;20016;-83
2021/12/17 01:24:34;;;;;;;47.83;33.42;;;;;;;6.23;100.00;103905.13;5091011;28;20036;-83
2021/12/17 01:35:28;;;;;;;46.17;32.10;;;;;;;6.27;100.00;103898.13;5091284;28;20494;-85
2021/12/17 01:43:09;;;;;;;45.63;33.25;;;;;;;6.26;100.00;103897.25;5090869;28;20051;-85
2021/12/17 01:45:38;;;;;;;43.50;31.85;;;;;;;6.26;100.00;103897.25;5088866;28;20596;-83
2021/12/17 01:48:10;;;;;;;45.92;32.17;;;;;;;6.25;100.00;103895.53;5083757;28;20510;-83
2021/12/17 02:01:34;;;;;;;46.80;34.78;;;;;;;6.33;100.00;103891.97;5090306;28;20034;-83
2021/12/17 02:04:03;;;;;;;47.83;34.05;;;;;;;6.31;100.00;103891.13;5085867;28;20032;-82
2021/12/17 02:06:30;;;;;;;54.33;35.47;;;;;;;6.32;100.00;103888.50;5069163;28;20039;-83
2021/12/17 02:08:57;;;;;;;50.90;35.58;;;;;;;6.37;100.00;103894.56;5069268;28;20127;-82
2021/12/17 02:12:11;;;;;;;51.28;35.75;;;;;;;6.37;100.00;103898.91;5069840;28;20051;-82
2021/12/17 02:19:49;;;;;;;48.28;34.22;;;;;;;6.39;100.00;103894.53;5107181;28;20281;-81
2021/12/17 02:23:08;;;;;;;47.33;33.03;;;;;;;6.39;100.00;103889.31;5087802;28;20024;-80
2021/12/17 02:31:14;;;;;;;45.63;32.80;;;;;;;6.36;100.00;103876.25;5090433;28;20174;-81
2021/12/17 02:33:40;;;;;;;47.28;33.83;;;;;;;6.45;100.00;103897.13;5090453;28;20387;-80
2021/12/17 02:36:06;;;;;;;46.40;33.70;;;;;;;6.45;100.00;103900.63;5088114;28;20028;-82
2021/12/17 02:38:39;;;;;;;47.22;33.85;;;;;;;6.42;100.00;103898.03;5089609;28;20790;-82
2021/12/17 02:46:37;;;;;;;54.95;36.58;;;;;;;6.49;100.00;103899.72;5069652;28;20408;-84
2021/12/17 02:49:03;;;;;;;57.97;37.28;;;;;;;6.47;100.00;103892.75;5085215;28;20036;-83
2021/12/17 02:51:28;;;;;;;57.58;37.80;;;;;;;6.50;100.00;103897.97;5089251;28;20066;-84
2021/12/17 02:53:54;;;;;;;57.38;37.55;;;;;;;6.51;100.00;103897.09;5089742;28;20089;-82
2021/12/17 02:56:21;;;;;;;52.97;36.08;;;;;;;6.53;100.00;103892.72;5087857;28;20502;-83
2021/12/17 02:58:47;;;;;;;52.65;36.15;;;;;;;6.55;100.00;103893.56;5071663;28;20052;-84
2021/12/17 03:01:14;;;;;;;55.40;36.67;;;;;;;6.52;100.00;103888.34;5074287;28;20106;-83
2021/12/17 03:03:43;;;;;;;52.83;34.85;;;;;;;6.52;100.00;103889.22;5086606;28;20536;-82
2021/12/17 03:06:09;;;;;;;61.33;37.92;;;;;;;6.53;100.00;103890.97;5088505;28;20020;-82
2021/12/17 03:08:35;;;;;;;65.32;36.70;;;;;;;6.56;100.00;103895.28;5089210;28;20024;-83
2021/12/17 03:11:01;;;;;;;67.13;37.95;;;;;;;6.56;100.00;103890.06;5089206;28;20100;-82
2021/12/17 03:13:28;;;;;;;68.65;37.72;;;;;;;6.59;100.00;103895.28;5096758;28;20074;-83
2021/12/17 03:16:00;;;;;;;58.75;36.75;;;;;;;6.59;100.00;103896.13;5082387;28;20056;-84
2021/12/17 03:23:43;;;;;;;78.15;39.00;;;;;;;6.63;100.00;103902.22;5069077;28;20043;-83
2021/12/17 03:26:17;;;;;;;72.40;39.13;;;;;;;6.66;100.00;103902.19;5070045;28;20133;-83
2021/12/17 03:28:47;;;;;;;78.43;41.25;;;;;;;6.68;100.00;103910.88;5069015;28;20024;-82
2021/12/17 03:31:14;;;;;;;85.50;42.15;;;;;;;6.69;100.00;103911.75;5069058;28;20024;-83
2021/12/17 03:33:42;;;;;;;86.75;43.00;;;;;;;6.71;100.00;103910.84;5082424;28;20032;-81
2021/12/17 03:36:16;;;;;;;103.00;44.55;;;;;;;6.72;100.00;103906.50;5091352;28;20070;-82
2021/12/17 03:38:44;;;;;;;103.90;46.05;;;;;;;6.76;100.00;103914.28;5091646;28;20667;-82
2021/12/17 03:43:37;;;;;;;112.80;46.28;;;;;;;6.82;100.00;103909.03;5092972;28;20044;-83
2021/12/17 03:46:02;;;;;;;120.95;46.83;;;;;;;6.85;100.00;103914.25;5092997;28;20038;-82
2021/12/17 03:48:30;;;;;;;125.72;44.70;;;;;;;6.87;100.00;103909.84;5089840;28;20028;-85
2021/12/17 03:50:55;;;;;;;132.20;46.97;;;;;;;6.84;100.00;103902.03;5089557;28;20532;-84
2021/12/17 03:53:21;;;;;;;136.00;47.35;;;;;;;6.90;100.00;103901.97;5092577;28;20108;-82
2021/12/17 03:55:46;;;;;;;127.15;46.83;;;;;;;6.84;100.00;103893.31;5093104;28;20024;-83
2021/12/17 03:58:16;;;;;;;131.50;46.58;;;;;;;6.87;100.00;103894.16;5092884;28;20637;-85
2021/12/17 04:00:42;;;;;;;129.90;45.88;;;;;;;6.93;100.00;103895.84;5091265;28;20447;-82
2021/12/17 04:03:07;;;;;;;131.95;44.88;;;;;;;6.89;100.00;103900.25;5092521;28;20028;-83
2021/12/17 04:05:32;;;;;;;138.77;45.90;;;;;;;6.92;100.00;103904.56;5092068;28;20023;-83
2021/12/17 04:07:58;;;;;;;143.00;45.72;;;;;;;6.99;100.00;103905.38;5072163;28;20023;-83
2021/12/17 04:10:25;;;;;;;142.57;44.88;;;;;;;6.91;100.00;103890.63;5072658;28;20024;-83
2021/12/17 04:12:59;;;;;;;154.52;45.80;;;;;;;6.98;100.00;103903.66;5092166;28;20038;-83
2021/12/17 04:15:36;;;;;;;146.95;44.67;;;;;;;7.00;100.00;103901.88;5112244;28;20110;-81
2021/12/17 04:18:07;;;;;;;151.38;45.33;;;;;;;6.94;100.00;103883.63;5113104;28;20019;-83
2021/12/17 04:20:33;;;;;;;151.13;43.88;;;;;;;6.99;100.00;103894.91;5091502;28;20160;-81
2021/12/17 04:22:59;;;;;;;153.48;43.78;;;;;;;6.97;100.00;103880.97;5086827;28;20024;-83
2021/12/17 04:25:25;;;;;;;149.77;42.95;;;;;;;7.01;100.00;103893.13;5074967;28;20021;-82
2021/12/17 04:27:50;;;;;;;151.55;44.08;;;;;;;7.01;100.00;103903.63;5071257;28;20107;-82
2021/12/17 04:30:16;;;;;;;163.23;45.17;;;;;;;7.02;100.00;103892.25;5072011;28;20097;-83
2021/12/17 04:32:41;;;;;;;165.27;46.13;;;;;;;7.05;100.00;103905.31;5072325;28;20020;-83
2021/12/17 04:35:07;;;;;;;158.55;43.80;;;;;;;7.02;100.00;103894.88;5070799;28;20021;-83
2021/12/17 04:37:33;;;;;;;161.32;45.58;;;;;;;7.01;100.00;103898.38;5092029;28;20056;-83
2021/12/17 04:39:58;;;;;;;161.57;45.45;;;;;;;7.04;100.00;103898.34;5092886;28;20031;-82
2021/12/17 04:42:38;;;;;;;155.75;43.53;;;;;;;6.99;100.00;103894.91;5087732;28;20032;-82
2021/12/17 04:45:04;;;;;;;166.00;45.47;;;;;;;7.04;100.00;103903.56;5072256;28;20498;-83
2021/12/17 04:58:26;;;;;;;167.30;45.65;;;;;;;7.03;100.00;103886.13;5090539;28;20403;-85
2021/12/17 05:00:52;;;;;;;187.10;47.53;;;;;;;7.08;100.00;103895.69;5073316;28;20024;-85
2021/12/17 05:03:18;;;;;;;174.90;46.17;;;;;;;7.03;100.00;103881.78;5084487;28;20427;-85
2021/12/17 05:05:43;;;;;;;182.20;47.42;;;;;;;7.05;100.00;103889.59;5090954;28;20023;-84
2021/12/17 05:08:14;;;;;;;194.18;48.25;;;;;;;7.04;100.00;103893.09;5090262;28;20077;-84
2021/12/17 05:10:59;;;;;;;189.00;50.03;;;;;;;7.08;100.00;103900.03;5090768;28;20027;-83
2021/12/17 05:19:14;;;;;;;173.43;47.63;;;;;;;7.05;100.00;103898.31;5091674;28;20120;-83
2021/12/17 05:21:40;;;;;;;173.95;46.35;;;;;;;7.07;100.00;103893.06;5092205;28;20031;-85
2021/12/17 05:24:05;;;;;;;171.98;48.10;;;;;;;7.04;100.00;103888.75;5091442;28;20024;-86
2021/12/17 05:26:31;;;;;;;179.55;49.47;;;;;;;7.05;100.00;103887.84;5090806;28;20373;-86
2021/12/17 05:28:56;;;;;;;178.73;48.92;;;;;;;7.13;100.00;103903.47;5091787;28;20028;-86
2021/12/17 05:31:22;;;;;;;186.85;49.72;;;;;;;7.04;100.00;103896.59;5089082;28;20024;-83
2021/12/17 05:33:49;;;;;;;176.88;47.38;;;;;;;7.09;100.00;103901.78;5085833;28;20601;-85
2021/12/17 05:36:15;;;;;;;162.30;44.33;;;;;;;7.09;100.00;103901.78;5090738;28;20085;-83
2021/12/17 05:38:40;;;;;;;172.23;45.63;;;;;;;7.07;100.00;103898.31;5090321;28;20127;-85
2021/12/17 05:41:06;;;;;;;148.85;42.03;;;;;;;7.12;100.00;103906.97;5091144;28;20110;-86
2021/12/17 05:43:36;;;;;;;153.63;42.58;;;;;;;7.12;100.00;103917.47;5091415;28;20156;-85
2021/12/17 05:46:09;;;;;;;148.68;41.50;;;;;;;7.12;100.00;103920.06;5091036;28;20125;-85
2021/12/17 05:48:34;;;;;;;144.68;39.75;;;;;;;7.10;100.00;103914.84;5085673;28;20200;-85
2021/12/17 05:51:03;;;;;;;140.20;39.00;;;;;;;7.08;100.00;103906.16;5084136;28;20436;-85
2021/12/17 05:53:29;;;;;;;139.57;37.97;;;;;;;7.14;100.00;103910.44;5089865;28;20399;-84
2021/12/17 05:55:55;;;;;;;133.25;37.92;;;;;;;7.10;100.00;103895.66;5091212;28;20388;-86
2021/12/17 05:58:21;;;;;;;143.27;37.38;;;;;;;7.10;100.00;103903.50;5088939;28;20046;-82
2021/12/17 06:00:47;;;;;;;141.18;39.13;;;;;;;7.09;100.00;103905.25;5089663;28;20027;-83
2021/12/17 06:03:13;;;;;;;132.07;37.08;;;;;;;7.09;100.00;103909.63;5091052;28;20024;-83
2021/12/17 06:05:39;;;;;;;128.75;38.22;;;;;;;7.06;100.00;103907.91;5087302;28;20024;-83
2021/12/17 06:08:05;;;;;;;128.52;36.83;;;;;;;7.09;100.00;103912.25;5089289;28;20590;-83
2021/12/17 06:10:31;;;;;;;124.15;36.08;;;;;;;7.14;100.00;103926.16;5089435;28;20499;-83
2021/12/17 06:12:56;;;;;;;123.63;36.35;;;;;;;7.07;100.00;103911.41;5095739;28;20106;-83
2021/12/17 06:15:22;;;;;;;121.55;34.00;;;;;;;7.14;100.00;103923.53;5097486;28;20091;-83
2021/12/17 06:17:48;;;;;;;128.13;35.20;;;;;;;7.16;100.00;103929.63;5090877;28;20032;-83
2021/12/17 06:20:15;;;;;;;120.03;35.58;;;;;;;7.11;100.00;103916.59;5088066;28;20468;-83
2021/12/17 06:22:40;;;;;;;125.72;37.28;;;;;;;7.14;100.00;103921.78;5089444;28;20039;-83
2021/12/17 06:25:07;;;;;;;120.75;34.90;;;;;;;7.16;100.00;103929.63;5084369;28;20021;-84
2021/12/17 06:27:33;;;;;;;124.25;34.72;;;;;;;7.16;100.00;103929.63;5069213;28;20140;-83
2021/12/17 06:29:58;;;;;;;120.93;34.92;;;;;;;7.16;100.00;103937.47;5086073;28;20107;-83
2021/12/17 06:32:25;;;;;;;120.43;35.88;;;;;;;7.09;100.00;103934.06;5069548;28;20025;-83
2021/12/17 06:34:51;;;;;;;129.30;35.10;;;;;;;7.13;100.00;103942.75;5069937;28;20024;-83
2021/12/17 06:37:17;;;;;;;121.50;34.85;;;;;;;7.12;100.00;103933.16;5089494;28;20101;-83
2021/12/17 06:39:43;;;;;;;118.13;34.15;;;;;;;7.13;100.00;103927.91;5083738;28;20055;-82
2021/12/17 06:42:10;;;;;;;121.32;34.58;;;;;;;7.14;100.00;103931.41;5087571;28;20035;-83
2021/12/17 06:44:36;;;;;;;117.18;33.67;;;;;;;7.16;100.00;103947.97;5085903;28;20054;-84
2021/12/17 06:47:08;;;;;;;112.03;32.65;;;;;;;7.15;100.00;103938.38;5089488;28;20035;-84
2021/12/17 07:00:10;;;;;;;110.38;32.35;;;;;;;7.17;100.00;103931.38;5089489;28;20392;-84
2021/12/17 07:10:48;;;;;;;93.68;30.90;;;;;;;7.10;100.00;103932.31;5086776;28;20027;-85
2021/12/17 07:32:18;;;;;;;87.10;29.00;;;;;;;7.11;100.00;103936.66;5069053;28;20048;-83
2021/12/17 07:55:16;;;;;;;76.35;28.75;;;;;;;7.20;100.00;103931.34;4983252;28;20068;-81
2021/12/17 07:57:41;;;;;;;72.18;28.73;;;;;;;7.12;100.00;103926.19;4981830;28;20835;-87
2021/12/17 08:00:07;;;;;;;73.68;29.25;;;;;;;7.15;100.00;103933.13;5079712;28;20123;-86
2021/12/17 08:02:33;;;;;;;76.63;29.00;;;;;;;7.15;100.00;103930.50;5083727;28;20038;-84
2021/12/17 08:04:58;;;;;;;69.93;27.50;;;;;;;7.15;100.00;103927.91;5089231;28;20024;-84
2021/12/17 08:07:24;;;;;;;71.15;29.27;;;;;;;7.14;100.00;103920.91;5088646;28;20046;-87
2021/12/17 08:09:49;;;;;;;78.97;30.15;;;;;;;7.14;100.00;103928.78;5091646;28;20032;-86
2021/12/17 08:12:16;;;;;;;72.03;29.15;;;;;;;7.14;100.00;103934.88;5088236;28;20028;-88
2021/12/17 08:14:42;;;;;;;63.78;28.92;;;;;;;7.05;100.00;103927.13;5086713;28;20016;-86
2021/12/17 08:17:39;;;;;;;66.85;29.30;;;;;;;7.12;100.00;103928.78;5089021;28;20081;-87
2021/12/17 08:25:27;;;;;;;63.92;28.17;;;;;;;7.17;100.00;103947.06;5096737;28;20241;-87
2021/12/17 08:28:07;;;;;;;63.65;29.55;;;;;;;7.15;100.00;103952.31;5108483;27;20031;-86
2021/12/17 08:30:39;;;;;;;70.15;30.02;;;;;;;7.16;100.00;103953.19;5091380;28;20056;-87
2021/12/17 08:33:06;;;;;;;66.93;30.48;;;;;;;7.18;100.00;103943.56;5090987;28;20028;-86
2021/12/17 08:35:36;;;;;;;73.05;31.08;;;;;;;7.14;100.00;103960.19;5092177;28;20805;-87
2021/12/17 08:38:05;;;;;;;72.90;32.22;;;;;;;7.15;100.00;103965.41;5108559;28;20454;-82
2021/12/17 08:40:32;;;;;;;67.72;30.00;;;;;;;7.14;100.00;103961.06;5109674;28;20027;-88
2021/12/17 08:42:57;;;;;;;64.75;30.58;;;;;;;7.12;100.00;103960.22;5096265;28;20039;-86
2021/12/17 08:45:23;;;;;;;61.95;30.27;;;;;;;7.12;100.00;103959.34;5091232;28;20024;-87
2021/12/17 08:47:50;;;;;;;65.75;30.67;;;;;;;7.11;100.00;103960.22;5099607;28;20410;-86
2021/12/17 08:50:18;;;;;;;66.25;31.45;;;;;;;7.11;100.00;103965.47;5096204;27;20438;-87
2021/12/17 08:52:45;;;;;;;65.57;31.45;;;;;;;7.12;100.00;103954.97;5102449;28;20152;-87
2021/12/17 08:55:10;;;;;;;62.95;30.25;;;;;;;7.08;100.00;103945.41;5094163;28;20020;-86
2021/12/17 08:57:36;;;;;;;62.90;30.92;;;;;;;7.08;100.00;103947.16;5083454;28;20067;-87
2021/12/17 09:00:08;;;;;;;63.28;29.35;;;;;;;7.12;100.00;103948.88;5082731;28;20031;-87
2021/12/17 09:02:35;;;;;;;65.72;29.75;;;;;;;7.08;100.00;103932.34;5083246;28;20115;-87
2021/12/17 09:05:01;;;;;;;62.40;29.33;;;;;;;7.15;100.00;103948.84;5079804;28;20029;-85
2021/12/17 09:07:26;;;;;;;63.55;29.85;;;;;;;7.09;100.00;103948.91;5082654;28;20039;-82
2021/12/17 09:09:51;;;;;;;66.75;29.13;;;;;;;7.08;100.00;103940.19;5078815;28;20028;-83
2021/12/17 09:12:25;;;;;;;64.95;29.67;;;;;;;7.12;100.00;103947.13;5078178;28;20067;-85
2021/12/17 09:14:51;;;;;;;70.32;29.63;;;;;;;7.15;100.00;103959.31;5084599;28;20102;-87
2021/12/17 09:17:18;;;;;;;63.13;28.35;;;;;;;7.15;100.00;103954.06;5079600;28;20036;-86
2021/12/17 09:19:44;;;;;;;67.57;30.40;;;;;;;7.17;100.00;103968.03;5087753;28;20053;-87
2021/12/17 09:22:09;;;;;;;68.03;29.08;;;;;;;7.16;100.00;103968.91;5078108;28;20039;-87
2021/12/17 09:24:35;;;;;;;67.55;29.90;;;;;;;7.17;100.00;103978.50;5076330;28;20020;-87
2021/12/17 09:27:00;;;;;;;70.38;29.45;;;;;;;7.12;100.00;103975.06;5077285;28;20027;-87
2021/12/17 09:29:27;;;;;;;65.85;30.10;;;;;;;7.17;100.00;103988.97;5075655;28;20020;-83
2021/12/17 09:31:52;;;;;;;64.43;29.08;;;;;;;7.16;100.00;103982.00;5078315;28;20028;-86
2021/12/17 09:34:17;;;;;;;66.95;29.50;;;;;;;7.13;100.00;103982.03;5075713;28;20536;-86
2021/12/17 09:36:43;;;;;;;62.35;28.75;;;;;;;7.18;100.00;103998.56;5085345;28;20049;-84
2021/12/17 09:39:08;;;;;;;60.40;27.77;;;;;;;7.18;100.00;103999.44;5087047;28;20409;-85
2021/12/17 09:41:34;;;;;;;62.78;28.52;;;;;;;7.16;100.00;103989.84;5083047;28;20043;-86
2021/12/17 09:43:59;;;;;;;67.20;28.98;;;;;;;7.21;100.00;104002.06;5105218;28;20464;-85
2021/12/17 09:46:25;;;;;;;68.28;29.52;;;;;;;7.20;100.00;104005.56;5091496;28;20479;-81
2021/12/17 09:48:51;;;;;;;68.90;28.80;;;;;;;7.19;100.00;104002.91;5091757;28;20537;-86
2021/12/17 09:51:18;;;;;;;72.43;29.65;;;;;;;7.23;100.00;104009.88;5081992;28;20056;-85
2021/12/17 09:53:44;;;;;;;72.93;28.58;;;;;;;7.19;100.00;104002.91;5072467;28;20031;-85
2021/12/17 09:56:10;;;;;;;73.70;30.20;;;;;;;7.19;100.00;103997.69;5071807;28;20028;-85
2021/12/17 09:58:35;;;;;;;70.55;28.27;;;;;;;7.24;100.00;104016.88;5069345;28;20394;-85
2021/12/17 10:01:01;;;;;;;71.00;30.45;;;;;;;7.23;100.00;104009.88;5072148;28;20502;-86
2021/12/17 10:03:27;;;;;;;71.57;29.38;;;;;;;7.22;100.00;104008.16;5071053;28;20536;-85
2021/12/17 10:05:54;;;;;;;69.57;29.25;;;;;;;7.27;100.00;104019.44;5071120;28;20036;-87
2021/12/17 10:08:23;;;;;;;76.88;29.95;;;;;;;7.28;100.00;104018.56;5074160;28;20108;-83
2021/12/17 10:10:53;;;;;;;69.43;28.98;;;;;;;7.29;100.00;104012.44;5071026;28;20032;-86
2021/12/17 10:13:21;;;;;;;68.93;29.60;;;;;;;7.26;100.00;104012.47;5081817;28;20123;-86
2021/12/17 10:15:50;;;;;;;73.00;29.73;;;;;;;7.23;100.00;104004.66;5111697;28;20024;-86
2021/12/17 10:18:17;;;;;;;70.00;28.20;;;;;;;7.27;100.00;104006.34;5110349;28;20106;-86
2021/12/17 10:20:57;;;;;;;70.93;29.50;;;;;;;7.30;100.00;104014.19;5112647;28;20031;-85
2021/12/17 10:23:25;;;;;;;72.70;30.17;;;;;;;7.32;100.00;104017.66;5103964;28;20384;-87
2021/12/17 10:25:50;;;;;;;72.22;30.25;;;;;;;7.30;100.00;104006.31;5078652;28;20558;-86
2021/12/17 10:28:16;;;;;;;72.72;29.20;;;;;;;7.29;100.00;104006.34;5069095;28;20060;-86
2021/12/17 10:30:46;;;;;;;69.93;29.17;;;;;;;7.36;100.00;104021.13;5070417;28;20028;-86
2021/12/17 10:33:23;;;;;;;72.95;28.45;;;;;;;7.40;100.00;104023.69;5069689;28;20029;-87
2021/12/17 10:35:51;;;;;;;66.55;28.88;;;;;;;7.34;100.00;104022.88;5070608;28;20105;-86
2021/12/17 10:38:24;;;;;;;67.75;28.88;;;;;;;7.42;100.00;104027.16;5086712;28;20539;-86
2021/12/17 10:41:02;;;;;;;67.72;28.73;;;;;;;7.36;100.00;104011.50;5071620;28;20040;-86
2021/12/17 10:43:35;;;;;;;74.70;29.63;;;;;;;7.35;100.00;104007.16;5088643;28;20166;-86
2021/12/17 10:46:11;;;;;;;71.03;29.00;;;;;;;7.41;100.00;104009.69;5090020;28;20032;-86
2021/12/17 10:51:32;;;;;;;64.60;27.67;;;;;;;7.51;100.00;104028.81;5106354;28;20107;-86
2021/12/17 10:54:03;;;;;;;69.15;28.90;;;;;;;7.44;100.00;104017.53;5090096;28;20035;-87
2021/12/17 10:56:41;;;;;;;64.57;27.63;;;;;;;7.44;100.00;104009.66;5089759;28;20035;-86
2021/12/17 10:59:31;;;;;;;71.40;27.85;;;;;;;7.49;100.00;104025.34;5091198;28;20034;-86
2021/12/17 11:02:06;;;;;;;70.88;27.25;;;;;;;7.51;100.00;104031.44;5071680;28;20384;-86
2021/12/17 11:04:33;;;;;;;62.88;26.10;;;;;;;7.52;100.00;104027.94;5068252;28;20476;-85
2021/12/17 11:07:04;;;;;;;62.53;25.00;;;;;;;7.52;100.00;104030.53;5071213;28;20562;-86
2021/12/17 11:09:38;;;;;;;66.47;24.35;;;;;;;7.53;100.00;104020.06;5070256;28;20027;-86
2021/12/17 11:12:22;;;;;;;59.95;22.25;;;;;;;7.55;100.00;104028.75;5070176;28;20039;-86
2021/12/17 11:14:48;;;;;;;58.67;21.25;;;;;;;7.50;100.00;104013.97;5069421;28;20025;-87
2021/12/17 11:17:15;;;;;;;56.00;19.45;;;;;;;7.51;100.00;104011.34;5086496;28;20112;-85
2021/12/17 11:19:44;;;;;;;59.85;19.70;;;;;;;7.51;100.00;104006.09;5086229;28;20028;-85
2021/12/17 11:22:09;;;;;;;53.58;19.90;;;;;;;7.60;100.00;104020.84;5089989;28;20024;-86
2021/12/17 11:24:37;;;;;;;55.92;19.02;;;;;;;7.62;100.00;104020.88;5090694;28;20035;-86
2021/12/17 11:27:07;;;;;;;57.08;19.52;;;;;;;7.59;100.00;104013.88;5091205;28;20031;-87
2021/12/17 11:29:33;;;;;;;50.80;18.10;;;;;;;7.64;100.00;104016.47;5089792;28;20048;-85
2021/12/17 11:31:59;;;;;;;51.30;18.02;;;;;;;7.62;100.00;104008.63;5089332;28;20120;-86
2021/12/17 11:34:25;;;;;;;49.88;17.45;;;;;;;7.65;100.00;103997.25;5085187;28;20020;-85
2021/12/17 11:36:51;;;;;;;49.65;17.85;;;;;;;7.69;100.00;104004.19;5089446;28;20425;-86
2021/12/17 11:39:21;;;;;;;51.95;18.30;;;;;;;7.70;100.00;104000.69;5091024;28;20084;-86
2021/12/17 11:42:14;;;;;;;50.78;17.52;;;;;;;7.73;100.00;103995.41;5090371;28;20031;-87
2021/12/17 11:44:42;;;;;;;44.43;17.20;;;;;;;7.69;100.00;103983.22;5090402;28;20356;-84
2021/12/17 11:47:14;;;;;;;45.85;17.42;;;;;;;7.75;100.00;103988.38;5091742;28;20308;-84
2021/12/17 11:49:49;;;;;;;49.45;17.92;;;;;;;7.77;100.00;103986.59;5082641;28;20368;-84
2021/12/17 11:52:35;;;;;;;52.47;18.95;;;;;;;7.81;100.00;103977.81;5087651;28;20020;-84
2021/12/17 11:55:22;;;;;;;45.35;18.10;;;;;;;7.82;100.00;103979.56;5075274;28;20036;-84
2021/12/17 11:57:50;;;;;;;49.28;17.70;;;;;;;7.78;100.00;103973.50;5092452;28;20495;-84
2021/12/17 12:00:22;;;;;;;51.75;19.00;;;;;;;7.81;100.00;103972.59;5092749;28;20028;-84
2021/12/17 12:02:53;;;;;;;51.70;17.67;;;;;;;7.82;100.00;103982.19;5093707;28;20031;-87
2021/12/17 12:05:37;;;;;;;47.83;18.13;;;;;;;7.86;100.00;103976.00;5091582;28;20200;-84
2021/12/17 12:08:21;;;;;;;45.67;17.92;;;;;;;7.87;100.00;103982.97;5088514;28;20031;-82
2021/12/17 12:11:18;;;;;;;45.25;18.40;;;;;;;7.87;100.00;103969.88;5072533;28;20481;-83
2021/12/17 12:13:49;;;;;;;45.75;17.67;;;;;;;7.86;100.00;103973.38;5098558;28;20027;-83
2021/12/17 12:16:26;;;;;;;44.20;17.73;;;;;;;7.83;100.00;103978.66;5073147;28;20039;-83
2021/12/17 12:18:53;;;;;;;41.83;17.23;;;;;;;7.83;100.00;103981.28;5073546;28;20031;-84
2021/12/17 12:21:21;;;;;;;37.50;16.65;;;;;;;7.86;100.00;103991.75;5086576;28;20483;-83
2021/12/17 12:23:54;;;;;;;41.13;18.23;;;;;;;7.88;100.00;103992.59;5090119;28;20069;-83
2021/12/17 12:26:45;;;;;;;38.60;17.02;;;;;;;7.90;100.00;103989.94;5088367;28;20718;-80
2021/12/17 12:29:21;;;;;;;40.28;16.52;;;;;;;7.82;100.00;103979.56;5080972;28;20020;-83
2021/12/17 12:31:54;;;;;;;41.28;18.02;;;;;;;7.84;100.00;103977.78;5081039;28;20028;-83
2021/12/17 12:34:29;;;;;;;39.58;18.13;;;;;;;7.84;100.00;103981.28;5081818;28;20510;-83
2021/12/17 12:37:05;;;;;;;42.70;18.75;;;;;;;7.87;100.00;103982.97;5075655;28;20020;-83
2021/12/17 12:39:37;;;;;;;37.28;17.85;;;;;;;7.88;100.00;103982.09;5073234;28;20143;-83
2021/12/17 12:42:05;;;;;;;39.50;18.77;;;;;;;7.81;100.00;103969.97;5076406;28;20016;-83
2021/12/17 12:44:39;;;;;;;42.22;19.52;;;;;;;7.89;100.00;103975.97;5077278;28;20032;-83
2021/12/17 12:47:06;;;;;;;39.25;18.23;;;;;;;7.88;100.00;103970.75;5076074;28;20004;-83
2021/12/17 12:49:50;;;;;;;36.95;17.55;;;;;;;7.90;100.00;103967.22;5072681;28;20041;-83
2021/12/17 12:52:33;;;;;;;35.20;17.17;;;;;;;7.88;100.00;103966.38;5088186;28;20055;-83
2021/12/17 12:55:12;;;;;;;28.00;15.20;;;;;;;7.87;100.00;103980.38;5083824;28;20043;-83
2021/12/17 12:57:41;;;;;;;34.17;15.80;;;;;;;7.82;100.00;103964.69;5088715;28;20019;-83
2021/12/17 13:00:19;;;;;;;28.92;14.05;;;;;;;7.82;100.00;103962.06;5091721;28;20127;-80
2021/12/17 13:02:49;;;;;;;26.42;13.20;;;;;;;7.85;100.00;103964.66;5104927;28;20086;-83
2021/12/17 13:05:15;;;;;;;24.45;13.30;;;;;;;7.81;100.00;103957.72;5091943;28;20027;-83
2021/12/17 13:07:44;;;;;;;24.05;11.93;;;;;;;7.80;100.00;103957.75;5089907;28;20024;-83
2021/12/17 13:10:35;;;;;;;25.98;12.68;;;;;;;7.88;100.00;103965.50;5090395;28;20016;-83
2021/12/17 13:16:18;;;;;;;19.77;10.80;;;;;;;7.86;100.00;103976.00;5077806;28;20529;-83
2021/12/17 13:21:35;;;;;;;22.02;12.00;;;;;;;7.82;100.00;103969.06;5071167;28;20008;-83
2021/12/17 13:24:16;;;;;;;24.88;13.20;;;;;;;7.81;100.00;103973.44;5083027;28;20355;-83
2021/12/17 13:27:14;;;;;;;28.58;14.27;;;;;;;7.83;100.00;103970.81;5091133;28;20106;-80
2021/12/17 13:29:43;;;;;;;23.17;13.75;;;;;;;7.77;100.00;103971.75;5091487;28;20112;-80
2021/12/17 13:32:11;;;;;;;30.42;14.50;;;;;;;7.76;100.00;103966.53;5092031;28;20097;-83
2021/12/17 13:34:40;;;;;;;27.60;14.23;;;;;;;7.75;100.00;103963.03;5084680;28;20044;-83
2021/12/17 13:37:21;;;;;;;25.60;14.23;;;;;;;7.77;100.00;103965.66;5069495;28;20024;-82
2021/12/17 13:39:50;;;;;;;27.92;15.80;;;;;;;7.74;100.00;103965.69;5071421;28;20099;-86
2021/12/17 13:42:22;;;;;;;26.02;15.32;;;;;;;7.73;100.00;103971.81;5070476;28;20542;-84
2021/12/17 13:44:51;;;;;;;25.33;13.73;;;;;;;7.72;100.00;103972.69;5070241;28;20387;-80
2021/12/17 13:47:20;;;;;;;24.63;13.23;;;;;;;7.70;100.00;103969.22;5071430;28;20480;-83
2021/12/17 13:49:47;;;;;;;24.17;12.85;;;;;;;7.68;100.00;103960.53;5071451;28;20024;-83
2021/12/17 13:52:13;;;;;;;23.27;13.55;;;;;;;7.64;100.00;103949.22;5073534;28;20024;-83
2021/12/17 13:54:38;;;;;;;22.52;12.65;;;;;;;7.67;100.00;103964.03;5086379;28;20024;-83
2021/12/17 13:57:06;;;;;;;18.05;11.73;;;;;;;7.66;100.00;103967.53;5086414;28;20058;-83
2021/12/17 13:59:33;;;;;;;15.52;9.40;;;;;;;7.64;100.00;103970.16;5069281;28;20024;-80
2021/12/17 14:02:06;;;;;;;11.80;7.53;;;;;;;7.63;100.00;103968.44;5070390;28;20396;-84
2021/12/17 14:04:31;;;;;;;10.90;7.50;;;;;;;7.63;100.00;103967.56;5070872;28;20113;-84
2021/12/17 14:07:04;;;;;;;11.13;8.07;;;;;;;7.63;100.00;103971.06;5070909;28;20180;-84
2021/12/17 14:09:29;;;;;;;11.13;7.95;;;;;;;7.57;100.00;103968.47;5085838;28;20095;-84